Time;durP1;ratioP1;P1;durP2;ratioP2;P2;SDS_P1;SDS_P2;PMS_P1;PMS_P2;Temp;Humidity;BMP_temperature;BMP_pressure;BME280_temperature;BME280_humidity;BME280_pressure;Samples;Min_cycle;Max_cycle;Signal;HPM_P1;HPM_P2
2022/01/27 00:05:20;;;;;;;39.70;21.38;;;0.90;99.90;;;;;;4939955;29;20036;-84
2022/01/27 00:08:09;;;;;;;34.55;18.30;;;0.90;99.90;;;;;;4940713;29;20032;-84
2022/01/27 00:13:16;;;;;;;37.22;17.77;;;0.90;99.90;;;;;;4921210;29;20038;-84
2022/01/27 00:15:45;;;;;;;35.10;17.60;;;0.90;99.90;;;;;;4948312;29;20027;-84
2022/01/27 00:18:17;;;;;;;31.63;16.38;;;0.80;99.90;;;;;;4940774;29;20067;-84
2022/01/27 00:20:45;;;;;;;35.97;17.90;;;0.80;99.90;;;;;;4940322;29;20042;-84
2022/01/27 00:23:12;;;;;;;56.33;19.08;;;0.80;99.90;;;;;;4922945;29;20028;-84
2022/01/27 00:25:38;;;;;;;44.60;17.63;;;0.60;99.90;;;;;;4939038;29;20031;-84
2022/01/27 00:28:08;;;;;;;41.95;18.80;;;0.60;99.90;;;;;;4936584;29;20588;-84
2022/01/27 00:30:35;;;;;;;39.95;18.17;;;1.20;99.90;;;;;;4940919;29;20074;-84
2022/01/27 00:33:03;;;;;;;41.60;18.17;;;0.90;99.90;;;;;;4940057;29;20091;-85
2022/01/27 00:35:30;;;;;;;49.55;19.00;;;0.60;99.90;;;;;;4940344;29;20127;-84
2022/01/27 00:37:55;;;;;;;46.60;19.88;;;0.60;99.90;;;;;;4939936;29;20110;-83
2022/01/27 00:40:23;;;;;;;41.50;18.92;;;0.70;99.90;;;;;;4937016;29;20440;-84
2022/01/27 00:42:48;;;;;;;42.65;19.10;;;1.00;99.90;;;;;;4938847;29;20059;-84
2022/01/27 00:45:15;;;;;;;39.25;18.65;;;0.60;99.90;;;;;;4940068;29;20507;-85
2022/01/27 00:47:41;;;;;;;36.55;18.48;;;0.60;99.90;;;;;;4939329;29;20098;-84
2022/01/27 00:50:07;;;;;;;39.08;18.95;;;0.60;99.90;;;;;;4940044;29;20028;-84
2022/01/27 00:52:43;;;;;;;35.17;18.30;;;0.60;99.90;;;;;;4938154;29;20028;-84
2022/01/27 00:55:10;;;;;;;37.67;19.00;;;1.30;99.90;;;;;;4935811;29;20500;-84
2022/01/27 00:58:23;;;;;;;34.53;18.25;;;0.70;99.90;;;;;;4940208;29;20028;-84
2022/01/27 01:00:37;;;;;;;38.70;18.90;;;0.80;99.90;;;;;;4935547;28;20043;-84
2022/01/27 01:03:11;;;;;;;37.35;17.58;;;0.80;99.90;;;;;;4939484;29;20580;-84
2022/01/27 01:08:48;;;;;;;43.35;19.40;;;0.90;99.90;;;;;;4939507;29;20038;-84
2022/01/27 01:16:28;;;;;;;33.03;17.98;;;1.10;99.90;;;;;;4920630;29;20093;-84
2022/01/27 01:19:05;;;;;;;35.17;17.45;;;0.50;99.90;;;;;;4937513;29;20436;-84
2022/01/27 01:30:22;;;;;;;41.42;18.67;;;0.50;99.90;;;;;;4879489;29;20073;-84
2022/01/27 01:32:53;;;;;;;35.50;17.55;;;0.50;99.90;;;;;;4872664;29;20064;-84
2022/01/27 01:35:46;;;;;;;41.78;19.05;;;0.50;99.90;;;;;;4879903;29;20153;-85
2022/01/27 01:38:11;;;;;;;34.35;18.23;;;0.50;99.90;;;;;;4879431;29;20041;-84
2022/01/27 01:40:37;;;;;;;40.72;18.05;;;0.50;99.90;;;;;;4879599;29;20084;-84
2022/01/27 01:43:02;;;;;;;39.50;17.27;;;0.50;99.90;;;;;;4878009;29;20507;-84
2022/01/27 01:45:34;;;;;;;36.25;18.15;;;0.90;99.90;;;;;;4878003;29;20040;-84
2022/01/27 01:47:59;;;;;;;38.53;18.08;;;0.50;99.90;;;;;;4879284;29;20073;-84
2022/01/27 01:50:25;;;;;;;32.67;18.13;;;0.60;99.90;;;;;;4879626;29;20025;-84
2022/01/27 01:52:52;;;;;;;32.42;16.23;;;0.50;99.90;;;;;;4879090;29;20123;-84
2022/01/27 01:55:18;;;;;;;34.42;16.42;;;0.50;99.90;;;;;;4879375;29;20036;-83
2022/01/27 01:57:44;;;;;;;32.28;16.92;;;0.60;99.90;;;;;;4893384;29;20036;-84
2022/01/27 02:00:11;;;;;;;35.90;17.35;;;1.10;99.90;;;;;;4938086;29;20035;-83
2022/01/27 02:02:38;;;;;;;35.85;18.70;;;0.70;99.90;;;;;;4938292;29;20027;-84
2022/01/27 02:05:05;;;;;;;40.60;18.15;;;0.70;99.90;;;;;;4938339;29;20032;-84
2022/01/27 02:10:05;;;;;;;42.20;19.52;;;0.80;99.90;;;;;;4935695;29;20488;-85
2022/01/27 02:18:16;;;;;;;34.35;16.40;;;0.70;99.90;;;;;;4861450;29;20086;-84
2022/01/27 02:20:42;;;;;;;41.03;19.33;;;0.50;99.90;;;;;;4861023;29;20523;-84
2022/01/27 02:23:10;;;;;;;37.38;18.10;;;0.60;99.90;;;;;;4860587;29;20037;-84
2022/01/27 02:25:36;;;;;;;35.30;17.83;;;0.60;99.90;;;;;;4859759;29;20047;-84
2022/01/27 02:28:02;;;;;;;35.88;17.48;;;0.60;99.90;;;;;;4857622;29;20108;-84
2022/01/27 02:30:28;;;;;;;44.38;19.83;;;0.60;99.90;;;;;;4861350;29;20050;-84
2022/01/27 02:32:55;;;;;;;39.78;19.77;;;0.70;99.90;;;;;;4861104;29;20045;-84
2022/01/27 02:35:24;;;;;;;42.03;19.05;;;0.70;99.90;;;;;;4860984;29;20124;-84
2022/01/27 02:37:50;;;;;;;36.85;18.20;;;1.30;99.90;;;;;;4860532;29;20394;-84
2022/01/27 02:40:28;;;;;;;38.60;18.00;;;0.50;99.90;;;;;;4856548;29;20491;-84
2022/01/27 02:42:54;;;;;;;35.72;18.20;;;0.60;99.90;;;;;;4858119;29;20049;-84
2022/01/27 02:45:44;;;;;;;33.90;17.60;;;0.50;99.90;;;;;;4860437;29;20574;-84
2022/01/27 02:48:12;;;;;;;36.25;17.77;;;0.30;99.90;;;;;;4860730;29;20069;-84
2022/01/27 02:50:37;;;;;;;40.45;18.27;;;1.10;99.90;;;;;;4934629;29;20152;-84
2022/01/27 02:53:03;;;;;;;35.63;17.55;;;0.40;99.90;;;;;;4937572;29;20075;-84
2022/01/27 02:55:29;;;;;;;42.83;21.17;;;0.40;99.90;;;;;;4936100;29;20023;-83
2022/01/27 02:57:57;;;;;;;37.75;18.45;;;0.80;99.90;;;;;;4935420;29;20091;-84
2022/01/27 03:00:23;;;;;;;47.03;22.70;;;0.60;99.90;;;;;;4938606;29;20096;-84
2022/01/27 03:02:49;;;;;;;38.17;18.88;;;0.50;99.90;;;;;;4937670;29;20017;-84
2022/01/27 03:05:14;;;;;;;41.10;19.00;;;0.50;99.90;;;;;;4937787;29;20032;-84
2022/01/27 03:07:40;;;;;;;37.85;18.10;;;1.10;99.90;;;;;;4937222;29;20071;-84
2022/01/27 03:10:06;;;;;;;39.00;19.00;;;0.60;99.90;;;;;;4934221;29;20036;-84
2022/01/27 03:12:32;;;;;;;39.28;17.85;;;0.60;99.90;;;;;;4937984;29;20032;-84
2022/01/27 03:14:58;;;;;;;39.55;18.88;;;0.50;99.90;;;;;;4937628;29;20048;-84
2022/01/27 03:17:24;;;;;;;43.85;18.65;;;0.40;99.90;;;;;;4937588;29;20024;-84
2022/01/27 03:19:51;;;;;;;37.25;19.17;;;0.50;99.90;;;;;;4938068;29;20058;-84
2022/01/27 03:22:17;;;;;;;36.42;18.50;;;0.50;99.90;;;;;;4934776;29;20133;-85
2022/01/27 03:24:43;;;;;;;37.97;17.83;;;0.60;99.90;;;;;;4941845;29;20020;-84
2022/01/27 03:27:20;;;;;;;41.05;19.92;;;0.50;99.90;;;;;;4940787;29;20059;-84
2022/01/27 03:29:45;;;;;;;44.35;21.98;;;0.50;99.90;;;;;;4941334;29;20024;-84
2022/01/27 03:32:11;;;;;;;39.38;18.77;;;0.60;99.90;;;;;;4941113;29;20031;-84
2022/01/27 03:34:37;;;;;;;35.05;17.92;;;0.60;99.90;;;;;;4939116;29;20067;-84
2022/01/27 03:37:03;;;;;;;35.35;17.85;;;0.60;99.90;;;;;;4937505;29;20043;-84
2022/01/27 03:39:29;;;;;;;34.88;17.30;;;0.60;99.90;;;;;;4940988;29;20036;-83
2022/01/27 03:41:56;;;;;;;33.95;16.70;;;0.60;99.90;;;;;;4941357;29;20070;-84
2022/01/27 03:44:22;;;;;;;35.13;17.58;;;0.50;99.90;;;;;;4940996;29;20016;-84
2022/01/27 03:46:50;;;;;;;38.55;18.48;;;0.30;99.90;;;;;;4940750;29;20027;-84
2022/01/27 03:49:16;;;;;;;40.75;19.40;;;0.30;99.90;;;;;;4936662;29;20480;-84
2022/01/27 03:51:42;;;;;;;38.33;18.45;;;0.40;99.90;;;;;;4941526;29;20024;-83
2022/01/27 03:54:08;;;;;;;38.33;18.40;;;0.80;99.90;;;;;;4940166;29;20064;-84
2022/01/27 03:56:34;;;;;;;37.72;18.17;;;0.40;99.90;;;;;;4940826;29;20122;-84
2022/01/27 03:58:59;;;;;;;40.92;17.58;;;0.10;99.90;;;;;;4940803;29;20035;-84
2022/01/27 04:01:25;;;;;;;35.70;17.13;;;0.30;99.90;;;;;;4937666;29;20090;-84
2022/01/27 04:03:55;;;;;;;36.42;18.27;;;0.60;99.90;;;;;;4939832;29;20030;-84
2022/01/27 04:06:31;;;;;;;36.15;17.50;;;1.10;99.90;;;;;;4941062;29;20023;-84
2022/01/27 04:08:57;;;;;;;37.17;18.58;;;0.60;99.90;;;;;;4939934;29;20035;-84
2022/01/27 04:11:23;;;;;;;37.78;18.13;;;0.60;99.90;;;;;;4940309;29;20108;-84
2022/01/27 04:13:48;;;;;;;43.67;19.98;;;0.70;99.90;;;;;;4940613;29;20535;-84
2022/01/27 04:16:14;;;;;;;36.03;18.25;;;0.60;99.90;;;;;;4936507;29;20032;-84
2022/01/27 04:18:39;;;;;;;36.83;17.67;;;0.50;99.90;;;;;;4940774;29;20365;-84
2022/01/27 04:21:05;;;;;;;37.83;17.63;;;0.40;99.90;;;;;;4940208;29;20032;-84
2022/01/27 04:23:31;;;;;;;38.90;18.50;;;0.30;99.90;;;;;;4940024;29;20373;-84
2022/01/27 04:25:57;;;;;;;34.50;18.40;;;0.40;99.90;;;;;;4939993;29;20082;-84
2022/01/27 04:28:28;;;;;;;39.03;17.52;;;0.30;99.90;;;;;;4936887;29;20051;-84
2022/01/27 04:30:56;;;;;;;35.95;17.63;;;0.30;99.90;;;;;;4938879;29;20035;-84
2022/01/27 04:33:28;;;;;;;35.67;17.67;;;0.30;99.90;;;;;;4923296;29;20050;-84
2022/01/27 04:35:57;;;;;;;39.80;18.33;;;0.40;99.90;;;;;;4939689;29;20043;-84
2022/01/27 04:39:08;;;;;;;35.92;18.08;;;0.40;99.90;;;;;;4939790;29;20028;-84
2022/01/27 04:43:49;;;;;;;35.40;17.92;;;0.30;99.90;;;;;;4938976;29;20042;-84
2022/01/27 04:48:53;;;;;;;37.10;18.02;;;0.40;99.90;;;;;;4947548;29;20027;-84
2022/01/27 04:51:22;;;;;;;38.38;18.30;;;0.50;99.90;;;;;;4939706;29;20061;-84
2022/01/27 04:56:19;;;;;;;34.10;16.60;;;0.40;99.90;;;;;;4939341;29;20110;-84
2022/01/27 04:58:48;;;;;;;37.78;18.10;;;0.30;99.90;;;;;;4939484;29;20839;-84
2022/01/27 05:01:16;;;;;;;37.75;17.98;;;0.20;99.90;;;;;;4920173;29;20404;-84
2022/01/27 05:03:54;;;;;;;41.92;17.92;;;-0.10;99.90;;;;;;4946294;29;20094;-84
2022/01/27 05:06:20;;;;;;;41.97;19.58;;;-0.10;99.90;;;;;;4938983;29;20039;-84
2022/01/27 05:08:45;;;;;;;39.13;17.88;;;0.10;99.90;;;;;;4939025;29;20504;-84
2022/01/27 05:11:25;;;;;;;40.00;19.55;;;0.00;99.90;;;;;;4939599;29;20508;-84
2022/01/27 05:13:58;;;;;;;39.33;17.17;;;0.30;99.90;;;;;;4939164;29;20411;-84
2022/01/27 05:16:24;;;;;;;37.38;17.95;;;0.30;99.90;;;;;;4935990;29;20027;-84
2022/01/27 05:18:50;;;;;;;38.42;18.30;;;0.20;99.90;;;;;;4938048;29;20564;-84
2022/01/27 05:21:15;;;;;;;37.00;17.77;;;0.10;99.90;;;;;;4939105;29;20111;-84
2022/01/27 05:23:41;;;;;;;37.67;18.38;;;0.10;99.90;;;;;;4939220;29;20090;-84
2022/01/27 05:26:07;;;;;;;29.27;15.50;;;0.20;99.90;;;;;;4938863;29;20043;-84
2022/01/27 05:28:32;;;;;;;30.95;15.52;;;0.00;99.90;;;;;;4937287;29;20071;-84
2022/01/27 05:30:58;;;;;;;32.22;15.85;;;0.10;99.90;;;;;;4936789;29;20032;-84
2022/01/27 05:33:23;;;;;;;33.13;15.88;;;0.10;99.90;;;;;;4939260;29;20044;-84
2022/01/27 05:35:49;;;;;;;33.25;15.75;;;0.10;99.90;;;;;;4938537;29;20055;-83
2022/01/27 05:38:16;;;;;;;36.00;17.92;;;0.10;99.90;;;;;;4938614;29;20032;-84
2022/01/27 05:40:43;;;;;;;32.50;16.92;;;0.20;99.90;;;;;;4938362;29;20034;-84
2022/01/27 05:43:11;;;;;;;37.55;16.17;;;0.30;99.90;;;;;;4934754;29;20098;-84
2022/01/27 05:45:37;;;;;;;35.88;17.25;;;0.40;99.90;;;;;;4938985;29;20023;-84
2022/01/27 05:48:03;;;;;;;35.15;16.83;;;0.40;99.90;;;;;;4938400;29;20063;-84
2022/01/27 05:50:29;;;;;;;37.28;16.58;;;0.40;99.90;;;;;;4938502;29;20030;-84
2022/01/27 05:52:55;;;;;;;33.83;16.35;;;0.30;99.90;;;;;;4938556;29;20027;-84
2022/01/27 05:55:20;;;;;;;36.28;16.58;;;0.30;99.90;;;;;;4934882;29;20068;-83
2022/01/27 05:57:46;;;;;;;37.90;17.10;;;0.30;99.90;;;;;;4953934;29;20020;-84
2022/01/27 06:00:12;;;;;;;41.53;18.83;;;0.40;99.90;;;;;;4938509;29;20126;-84
2022/01/27 06:02:38;;;;;;;36.55;17.13;;;0.40;99.90;;;;;;4938560;29;20028;-84
2022/01/27 06:05:04;;;;;;;35.30;17.85;;;0.30;99.90;;;;;;4937921;29;20035;-84
2022/01/27 06:07:30;;;;;;;51.53;16.98;;;0.30;99.90;;;;;;4920069;29;20032;-84
2022/01/27 06:09:56;;;;;;;38.42;17.95;;;0.20;99.90;;;;;;4936426;29;20028;-84
2022/01/27 06:12:22;;;;;;;37.50;17.17;;;0.10;99.90;;;;;;4938703;29;20031;-84
2022/01/27 06:14:48;;;;;;;39.00;18.08;;;0.10;99.90;;;;;;4937994;29;20035;-84
2022/01/27 06:17:14;;;;;;;36.60;18.08;;;0.00;99.90;;;;;;4938364;29;20038;-84
2022/01/27 06:19:44;;;;;;;46.42;17.45;;;0.00;99.90;;;;;;4936707;29;20027;-84
2022/01/27 06:22:14;;;;;;;40.17;16.92;;;0.00;99.90;;;;;;4934617;29;20028;-83
2022/01/27 06:24:44;;;;;;;44.20;17.25;;;0.00;99.90;;;;;;4938525;29;20103;-84
2022/01/27 06:27:11;;;;;;;38.08;17.80;;;-0.10;99.90;;;;;;4938237;29;20440;-84
2022/01/27 06:29:37;;;;;;;41.45;17.25;;;0.00;99.90;;;;;;4938025;29;20032;-84
2022/01/27 06:32:04;;;;;;;49.13;19.55;;;0.00;99.90;;;;;;4937901;29;20063;-84
2022/01/27 06:34:30;;;;;;;47.47;18.27;;;0.00;99.90;;;;;;4935439;29;20127;-84
2022/01/27 06:36:56;;;;;;;37.63;17.77;;;-0.10;99.90;;;;;;4935995;29;20072;-84
2022/01/27 06:39:21;;;;;;;38.60;18.02;;;-0.10;99.90;;;;;;4937647;29;20079;-83
2022/01/27 06:41:47;;;;;;;36.22;16.95;;;0.00;99.90;;;;;;4937001;29;20118;-82
2022/01/27 06:44:13;;;;;;;36.60;16.60;;;0.10;99.90;;;;;;4938598;29;20083;-89
2022/01/27 06:46:39;;;;;;;41.00;17.88;;;0.20;99.90;;;;;;4937398;29;20030;-93
2022/01/27 06:49:05;;;;;;;36.35;17.83;;;0.20;99.90;;;;;;4917893;29;20032;-88
2022/01/27 06:51:32;;;;;;;35.97;19.42;;;0.30;99.90;;;;;;4952573;29;20028;-88
2022/01/27 06:53:58;;;;;;;31.52;17.23;;;0.20;99.90;;;;;;4935912;29;20047;-85
2022/01/27 06:56:25;;;;;;;40.03;21.05;;;0.20;99.90;;;;;;4944424;28;20031;-89
2022/01/27 06:58:51;;;;;;;40.58;21.25;;;0.90;99.90;;;;;;4949868;29;20039;-90
2022/01/27 07:01:17;;;;;;;36.85;18.40;;;0.30;99.90;;;;;;4958424;29;20031;-92
2022/01/27 07:03:43;;;;;;;36.25;17.33;;;0.20;99.90;;;;;;4942918;29;20024;-85
2022/01/27 07:06:09;;;;;;;36.17;17.00;;;0.40;99.90;;;;;;4941497;29;20039;-88
2022/01/27 07:08:35;;;;;;;31.95;16.55;;;0.50;99.90;;;;;;4941096;29;20039;-87
2022/01/27 07:11:01;;;;;;;37.92;17.65;;;1.30;99.90;;;;;;4942036;29;20444;-88
2022/01/27 07:13:27;;;;;;;38.30;18.38;;;0.50;99.90;;;;;;4939057;29;20058;-87
2022/01/27 07:15:53;;;;;;;35.55;18.13;;;1.20;99.90;;;;;;4940252;29;20035;-87
2022/01/27 07:18:18;;;;;;;40.28;18.42;;;0.40;99.90;;;;;;4941549;29;20144;-86
2022/01/27 07:20:47;;;;;;;40.42;19.35;;;0.30;99.90;;;;;;4925836;29;20094;-88
2022/01/27 07:23:14;;;;;;;41.90;18.50;;;0.40;99.90;;;;;;4941542;29;20083;-87
2022/01/27 07:25:40;;;;;;;39.20;18.00;;;0.30;99.90;;;;;;4939915;29;20038;-87
2022/01/27 07:28:05;;;;;;;44.47;19.15;;;0.30;99.90;;;;;;4937547;29;20043;-86
2022/01/27 07:30:31;;;;;;;37.38;17.65;;;1.00;99.90;;;;;;4941803;29;20032;-87
2022/01/27 07:32:57;;;;;;;42.45;19.40;;;0.90;99.90;;;;;;4940747;29;20757;-87
2022/01/27 07:35:22;;;;;;;39.58;17.40;;;0.30;99.90;;;;;;4941006;29;20051;-87
2022/01/27 07:37:48;;;;;;;39.47;18.52;;;0.90;99.90;;;;;;4941138;29;20023;-87
2022/01/27 07:40:14;;;;;;;43.35;18.50;;;0.60;99.90;;;;;;4936729;29;20031;-87
2022/01/27 07:42:40;;;;;;;39.33;18.65;;;1.00;99.90;;;;;;4941213;29;20043;-87
2022/01/27 07:45:07;;;;;;;38.47;18.23;;;1.00;99.90;;;;;;4941134;29;20064;-87
2022/01/27 07:47:34;;;;;;;42.13;19.92;;;0.50;99.90;;;;;;4940663;29;20036;-86
2022/01/27 07:49:59;;;;;;;39.50;19.60;;;1.00;99.90;;;;;;4940544;29;20035;-89
2022/01/27 07:52:25;;;;;;;36.83;18.13;;;1.20;99.90;;;;;;4937827;29;20158;-87
2022/01/27 07:54:51;;;;;;;36.38;18.42;;;1.20;99.90;;;;;;4939788;29;20043;-89
2022/01/27 07:57:17;;;;;;;35.30;17.85;;;0.60;99.90;;;;;;4942130;29;20079;-91
2022/01/27 07:59:42;;;;;;;35.72;16.95;;;0.50;99.90;;;;;;4924609;29;20153;-86
2022/01/27 08:02:08;;;;;;;34.70;17.10;;;0.40;99.90;;;;;;4940103;29;20126;-87
2022/01/27 08:04:34;;;;;;;36.38;18.52;;;0.60;99.90;;;;;;4938825;29;20023;-88
2022/01/27 08:07:02;;;;;;;40.17;18.77;;;1.20;99.90;;;;;;4938131;29;20038;-87
2022/01/27 08:09:29;;;;;;;40.38;19.58;;;0.60;99.90;;;;;;4938643;29;20038;-87
2022/01/27 08:11:55;;;;;;;39.65;19.02;;;0.40;99.90;;;;;;4940779;29;20031;-87
2022/01/27 08:14:21;;;;;;;43.60;20.50;;;0.40;99.90;;;;;;4940024;29;20185;-86
2022/01/27 08:16:46;;;;;;;35.63;18.45;;;1.00;99.90;;;;;;4923735;29;20130;-86
2022/01/27 08:19:12;;;;;;;38.97;18.88;;;0.40;99.90;;;;;;4936082;29;20049;-87
2022/01/27 08:21:38;;;;;;;38.00;18.00;;;0.50;99.90;;;;;;4940659;29;20020;-87
2022/01/27 08:24:04;;;;;;;40.85;18.92;;;0.40;99.90;;;;;;4940415;29;20504;-87
2022/01/27 08:26:41;;;;;;;47.08;20.42;;;0.30;99.90;;;;;;4940298;29;20032;-86
2022/01/27 08:29:12;;;;;;;40.92;20.58;;;0.40;99.90;;;;;;4939894;29;20408;-86
2022/01/27 08:32:31;;;;;;;39.78;18.38;;;1.20;99.90;;;;;;4922613;29;20160;-86
2022/01/27 08:34:34;;;;;;;36.95;17.38;;;0.50;99.90;;;;;;4918454;29;20047;-87
2022/01/27 08:37:03;;;;;;;38.22;18.95;;;0.60;99.90;;;;;;4937724;29;20062;-87
2022/01/27 08:39:29;;;;;;;38.38;18.52;;;0.50;99.90;;;;;;4938327;29;20024;-87
2022/01/27 08:41:55;;;;;;;40.83;19.75;;;0.60;99.90;;;;;;4939384;29;20047;-86
2022/01/27 08:44:21;;;;;;;40.03;19.88;;;0.60;99.90;;;;;;4939246;29;20036;-86
2022/01/27 08:46:46;;;;;;;37.65;18.90;;;0.60;99.90;;;;;;4939383;29;20023;-86
2022/01/27 08:49:12;;;;;;;33.25;16.95;;;0.50;99.90;;;;;;4935625;29;20157;-86
2022/01/27 08:51:38;;;;;;;38.25;18.05;;;0.30;99.90;;;;;;4940592;29;20024;-86
2022/01/27 08:54:04;;;;;;;35.42;17.20;;;0.70;99.90;;;;;;4923785;29;20035;-86
2022/01/27 08:56:30;;;;;;;37.85;17.85;;;0.20;99.90;;;;;;4939514;29;20027;-86
2022/01/27 08:58:56;;;;;;;36.28;18.23;;;1.00;99.90;;;;;;4939181;29;20050;-86
2022/01/27 09:01:24;;;;;;;34.75;17.55;;;0.20;99.90;;;;;;4920292;29;20121;-86
2022/01/27 09:03:51;;;;;;;32.17;18.30;;;0.60;99.90;;;;;;4938688;29;20034;-86
2022/01/27 09:06:19;;;;;;;38.45;19.23;;;1.40;99.90;;;;;;4940305;29;20119;-86
2022/01/27 09:08:45;;;;;;;32.45;17.58;;;0.80;99.90;;;;;;4939056;29;20035;-86
2022/01/27 09:11:11;;;;;;;36.45;18.83;;;1.60;99.90;;;;;;4939147;29;20492;-86
2022/01/27 09:13:38;;;;;;;32.65;17.30;;;0.90;99.90;;;;;;4937149;29;20070;-86
2022/01/27 09:16:05;;;;;;;30.08;16.95;;;0.70;99.90;;;;;;4936669;29;20039;-86
2022/01/27 09:18:32;;;;;;;31.80;15.05;;;0.70;99.90;;;;;;4922442;29;20094;-87
2022/01/27 09:21:00;;;;;;;31.10;16.02;;;0.50;99.90;;;;;;4938499;29;20051;-86
2022/01/27 09:23:26;;;;;;;32.80;17.10;;;0.70;99.90;;;;;;4922971;29;20184;-86
2022/01/27 09:25:55;;;;;;;29.65;15.20;;;0.80;99.90;;;;;;4939436;29;20128;-87
2022/01/27 09:28:21;;;;;;;26.27;14.15;;;1.30;99.90;;;;;;4934972;29;20114;-86
2022/01/27 09:30:47;;;;;;;29.90;15.20;;;0.70;99.90;;;;;;4938429;29;20470;-86
2022/01/27 09:33:13;;;;;;;28.90;14.43;;;1.00;99.90;;;;;;4938953;29;20039;-86
2022/01/27 09:35:39;;;;;;;27.30;14.48;;;0.50;99.90;;;;;;4938787;29;20036;-86
2022/01/27 09:38:05;;;;;;;29.90;15.32;;;0.40;99.90;;;;;;4938522;29;20112;-86
2022/01/27 09:40:34;;;;;;;28.65;14.90;;;1.30;99.90;;;;;;4936889;29;20034;-87
2022/01/27 09:43:00;;;;;;;36.45;16.85;;;1.10;99.90;;;;;;4935058;29;20048;-87
2022/01/27 09:45:28;;;;;;;31.88;15.07;;;0.40;99.90;;;;;;4937246;29;20448;-87
2022/01/27 09:47:56;;;;;;;31.58;15.48;;;0.50;99.90;;;;;;4938932;29;20075;-86
2022/01/27 09:52:54;;;;;;;71.53;44.40;;;0.70;99.90;;;;;;4938900;29;20047;-87
2022/01/27 09:55:20;;;;;;;32.15;16.40;;;0.80;99.90;;;;;;4935045;29;20050;-87
2022/01/27 09:57:46;;;;;;;41.13;21.40;;;0.80;99.90;;;;;;4937995;29;20059;-87
2022/01/27 10:00:13;;;;;;;304.20;193.20;;;1.00;99.90;;;;;;4938551;29;20429;-86
2022/01/27 10:03:09;;;;;;;36.00;19.23;;;0.90;99.90;;;;;;4938189;29;20023;-86
2022/01/27 10:05:35;;;;;;;39.25;17.60;;;0.90;99.90;;;;;;4938275;29;20028;-86
2022/01/27 10:08:04;;;;;;;34.58;15.88;;;0.80;99.90;;;;;;4938143;29;20042;-87
2022/01/27 10:10:44;;;;;;;36.10;16.60;;;0.50;99.90;;;;;;4936444;29;20106;-87
2022/01/27 10:13:26;;;;;;;33.58;17.08;;;0.70;99.90;;;;;;4934659;29;20556;-86
2022/01/27 10:15:54;;;;;;;37.05;17.20;;;0.90;99.90;;;;;;4947246;29;20106;-86
2022/01/27 10:18:21;;;;;;;31.20;16.92;;;1.20;99.90;;;;;;4938567;29;20039;-87
2022/01/27 10:21:01;;;;;;;30.50;15.23;;;0.70;99.90;;;;;;4938037;29;20376;-86
2022/01/27 10:23:31;;;;;;;32.97;15.05;;;0.90;99.90;;;;;;4937751;29;20038;-87
2022/01/27 10:26:08;;;;;;;34.00;15.73;;;0.90;99.90;;;;;;4938004;29;20547;-87
2022/01/27 10:28:48;;;;;;;33.22;16.17;;;1.10;99.90;;;;;;4936192;29;20178;-86
2022/01/27 10:31:20;;;;;;;35.28;16.17;;;1.20;99.90;;;;;;4933273;28;20481;-87
2022/01/27 10:33:55;;;;;;;34.67;17.17;;;1.40;99.90;;;;;;4946375;29;20037;-86
2022/01/27 10:36:31;;;;;;;36.72;17.95;;;1.40;99.90;;;;;;4937822;29;20070;-87
2022/01/27 10:38:59;;;;;;;42.08;21.15;;;1.40;99.90;;;;;;4937861;29;20015;-87
2022/01/27 10:41:32;;;;;;;48.53;23.33;;;1.80;99.90;;;;;;4937208;29;20052;-87
2022/01/27 10:44:18;;;;;;;38.08;17.42;;;1.40;99.90;;;;;;4937976;29;20027;-86
2022/01/27 10:47:09;;;;;;;39.85;18.38;;;1.20;99.90;;;;;;4937358;29;20042;-87
2022/01/27 10:49:39;;;;;;;36.40;17.08;;;1.10;99.90;;;;;;4923393;29;20405;-87
2022/01/27 10:52:10;;;;;;;33.70;16.80;;;1.30;99.90;;;;;;4934618;29;20032;-86
2022/01/27 10:54:42;;;;;;;34.28;17.67;;;1.50;99.90;;;;;;4938178;29;20043;-87
2022/01/27 10:57:11;;;;;;;77.40;39.75;;;1.60;99.90;;;;;;4937554;29;20024;-86
2022/01/27 10:59:38;;;;;;;35.53;19.92;;;1.50;99.90;;;;;;4937612;29;20035;-87
2022/01/27 11:02:08;;;;;;;51.25;26.10;;;1.50;99.90;;;;;;4937650;29;20052;-87
2022/01/27 11:04:39;;;;;;;35.38;19.05;;;1.50;99.90;;;;;;4936014;29;20032;-86
2022/01/27 11:07:08;;;;;;;33.03;17.17;;;1.50;99.90;;;;;;4934670;29;20028;-87
2022/01/27 11:09:37;;;;;;;34.15;16.42;;;1.60;99.90;;;;;;4937873;29;20051;-87
2022/01/27 11:12:07;;;;;;;33.25;16.90;;;1.30;99.90;;;;;;4937816;29;20035;-86
2022/01/27 11:14:37;;;;;;;36.40;17.15;;;1.30;99.90;;;;;;4937236;29;20560;-86
2022/01/27 11:17:08;;;;;;;93.38;54.08;;;1.60;99.90;;;;;;4937914;29;20450;-86
2022/01/27 11:22:06;;;;;;;37.33;19.85;;;1.40;99.90;;;;;;4935599;29;20119;-86
2022/01/27 11:24:55;;;;;;;41.97;25.55;;;1.80;99.90;;;;;;4936581;29;20043;-87
2022/01/27 11:27:23;;;;;;;39.53;20.45;;;2.40;99.90;;;;;;4936887;29;20040;-87
2022/01/27 11:29:57;;;;;;;31.02;16.15;;;1.60;99.90;;;;;;4921552;29;20095;-87
2022/01/27 11:32:38;;;;;;;31.88;15.77;;;2.00;99.90;;;;;;4937776;29;20040;-87
2022/01/27 11:35:25;;;;;;;33.25;16.15;;;1.40;99.90;;;;;;4937291;29;20497;-86
2022/01/27 11:37:53;;;;;;;30.98;15.05;;;1.80;99.90;;;;;;4937295;29;20027;-87
2022/01/27 11:40:21;;;;;;;33.78;16.67;;;1.60;99.90;;;;;;4933437;29;20484;-86
2022/01/27 11:42:56;;;;;;;30.00;15.63;;;1.20;99.90;;;;;;4937901;29;20135;-86
2022/01/27 11:45:25;;;;;;;28.35;15.40;;;1.80;99.90;;;;;;4940595;29;20110;-87
2022/01/27 11:48:11;;;;;;;29.95;16.17;;;1.30;99.90;;;;;;4941008;29;20032;-87
2022/01/27 11:50:47;;;;;;;35.25;17.35;;;1.10;99.90;;;;;;4924368;29;20035;-87
2022/01/27 11:53:43;;;;;;;30.33;15.27;;;1.10;99.90;;;;;;4924304;29;20451;-87
2022/01/27 11:56:23;;;;;;;39.53;19.25;;;1.00;99.90;;;;;;4940671;29;20035;-87
2022/01/27 11:58:57;;;;;;;32.05;15.63;;;1.00;99.90;;;;;;4940663;29;20015;-87
2022/01/27 12:01:28;;;;;;;74.88;45.58;;;1.20;99.90;;;;;;4922900;29;20496;-87
2022/01/27 12:04:02;;;;;;;57.42;32.55;;;1.50;99.90;;;;;;4939422;29;20085;-87
2022/01/27 12:06:32;;;;;;;31.38;16.92;;;2.00;99.90;;;;;;4939191;29;20497;-87
2022/01/27 12:09:31;;;;;;;31.90;17.33;;;2.10;99.90;;;;;;4922086;29;20543;-87
2022/01/27 12:11:58;;;;;;;30.67;16.42;;;1.40;99.90;;;;;;4919018;29;20537;-87
2022/01/27 12:14:32;;;;;;;35.53;19.77;;;1.30;99.90;;;;;;4899844;29;20131;-87
2022/01/27 12:17:07;;;;;;;53.88;28.55;;;2.20;99.90;;;;;;4909695;29;20389;-87
2022/01/27 12:19:46;;;;;;;29.45;15.73;;;1.70;99.90;;;;;;4917046;29;20088;-88
2022/01/27 12:22:14;;;;;;;116.95;62.03;;;1.70;99.90;;;;;;4914342;29;20036;-87
2022/01/27 12:24:59;;;;;;;153.05;83.90;;;2.40;99.90;;;;;;4919876;29;20032;-87
2022/01/27 12:27:27;;;;;;;70.13;39.15;;;1.70;99.90;;;;;;4919362;29;20575;-87
2022/01/27 12:29:54;;;;;;;28.40;15.93;;;2.00;99.90;;;;;;4919262;29;20028;-87
2022/01/27 12:32:28;;;;;;;28.05;14.75;;;1.90;99.90;;;;;;4918670;29;20032;-87
2022/01/27 12:34:59;;;;;;;32.00;15.57;;;2.10;99.90;;;;;;4918903;29;20513;-87
2022/01/27 12:37:34;;;;;;;26.30;14.45;;;2.00;99.90;;;;;;4899134;29;20025;-87
2022/01/27 12:40:07;;;;;;;26.60;15.05;;;2.00;99.90;;;;;;4916334;29;20434;-88
2022/01/27 12:42:37;;;;;;;30.88;18.17;;;1.90;99.90;;;;;;4917975;29;20056;-87
2022/01/27 12:45:06;;;;;;;33.47;19.73;;;1.80;99.90;;;;;;4918475;29;20528;-87
2022/01/27 12:47:32;;;;;;;28.70;14.60;;;1.90;99.90;;;;;;4929308;29;20078;-87
2022/01/27 12:50:05;;;;;;;25.08;13.75;;;2.10;99.90;;;;;;4925190;29;20019;-87
2022/01/27 12:52:39;;;;;;;28.08;15.18;;;1.50;99.90;;;;;;4933617;29;20043;-87
2022/01/27 12:55:07;;;;;;;26.73;14.70;;;1.90;99.90;;;;;;4936381;29;20370;-87
2022/01/27 12:57:33;;;;;;;26.08;13.88;;;2.20;99.90;;;;;;4939908;29;20104;-87
2022/01/27 13:00:00;;;;;;;24.55;14.25;;;2.90;99.90;;;;;;4939733;29;20099;-87
2022/01/27 13:02:29;;;;;;;28.85;15.77;;;2.80;99.90;;;;;;4923300;29;20031;-87
2022/01/27 13:04:56;;;;;;;24.35;13.15;;;2.20;99.90;;;;;;4939185;29;20583;-87
2022/01/27 13:07:23;;;;;;;26.58;14.65;;;2.80;99.90;;;;;;4935568;29;20114;-87
2022/01/27 13:09:56;;;;;;;24.88;13.40;;;3.00;99.90;;;;;;4950919;29;20557;-87
2022/01/27 13:12:26;;;;;;;24.48;14.07;;;2.90;99.90;;;;;;4939837;29;20022;-88
2022/01/27 13:15:06;;;;;;;35.90;22.55;;;3.10;99.90;;;;;;4938868;29;20043;-87
2022/01/27 13:17:38;;;;;;;49.13;30.50;;;2.60;99.90;;;;;;4938919;29;20107;-87
2022/01/27 13:20:19;;;;;;;35.15;21.17;;;3.10;99.90;;;;;;4939097;29;20038;-88
2022/01/27 13:22:46;;;;;;;25.00;13.75;;;2.50;99.90;;;;;;4938633;29;20030;-87
2022/01/27 13:25:12;;;;;;;36.63;23.00;;;2.10;99.90;;;;;;4935627;29;20485;-87
2022/01/27 13:27:38;;;;;;;44.67;27.77;;;2.30;99.90;;;;;;4939559;29;20032;-87
2022/01/27 13:30:04;;;;;;;29.63;14.50;;;2.80;99.90;;;;;;4938739;29;20032;-87